Terminal Aerodrome Forecast
Issued by NWS Kansas City/Pleasant Hill, MO

Home | Current Version | Previous Version | Text Only | Print | Product List | Glossary On
Versions: 1 2 3 4 5 6 7 8 9 10 11 12 13
558
FTUS43 KEAX 080042 AAA
TAFMCI
TAF AMD
KMCI 080042Z 0801/0824 30020G30KT P6SM BKN080
     FM080700 32018G28KT 5SM -SHSN OVC018
     FM081600 32020G30KT P6SM OVC035=

USA.gov is the U.S. government's official web portal to all federal, state and local government web resources and services.